sensor_id;sensor_type;location;lat;lon;timestamp;pressure;altitude;pressure_sealevel;temperature;humidity
64886;BME280;51514;52.206;5.114;2023-02-14T00:00:49;103573.09;;;5.84;78.52
64886;BME280;51514;52.206;5.114;2023-02-14T00:03:14;103565.28;;;5.80;78.21
64886;BME280;51514;52.206;5.114;2023-02-14T00:05:40;103569.00;;;5.76;78.06
64886;BME280;51514;52.206;5.114;2023-02-14T00:08:05;103574.56;;;5.71;78.03
64886;BME280;51514;52.206;5.114;2023-02-14T00:10:30;103565.75;;;5.68;78.34
64886;BME280;51514;52.206;5.114;2023-02-14T00:12:56;103571.38;;;5.62;78.76
64886;BME280;51514;52.206;5.114;2023-02-14T00:15:21;103567.88;;;5.60;78.56
64886;BME280;51514;52.206;5.114;2023-02-14T00:17:47;103570.72;;;5.55;78.22
64886;BME280;51514;52.206;5.114;2023-02-14T00:20:13;103567.41;;;5.48;78.46
64886;BME280;51514;52.206;5.114;2023-02-14T00:22:38;103567.53;;;5.45;78.65
64886;BME280;51514;52.206;5.114;2023-02-14T00:25:04;103561.41;;;5.42;78.67
64886;BME280;51514;52.206;5.114;2023-02-14T00:27:29;103564.16;;;5.40;78.50
64886;BME280;51514;52.206;5.114;2023-02-14T00:29:55;103565.97;;;5.40;78.61
64886;BME280;51514;52.206;5.114;2023-02-14T00:32:26;103563.28;;;5.40;78.50
64886;BME280;51514;52.206;5.114;2023-02-14T00:34:51;103565.16;;;5.38;78.33
64886;BME280;51514;52.206;5.114;2023-02-14T00:37:16;103554.50;;;5.36;78.55
64886;BME280;51514;52.206;5.114;2023-02-14T00:39:41;103555.44;;;5.35;78.64
64886;BME280;51514;52.206;5.114;2023-02-14T00:42:07;103556.34;;;5.34;78.60
64886;BME280;51514;52.206;5.114;2023-02-14T00:44:32;103551.13;;;5.31;78.45
64886;BME280;51514;52.206;5.114;2023-02-14T00:46:57;103553.88;;;5.30;78.91
64886;BME280;51514;52.206;5.114;2023-02-14T00:49:23;103549.38;;;5.30;78.42
64886;BME280;51514;52.206;5.114;2023-02-14T00:51:48;103545.84;;;5.30;78.25
64886;BME280;51514;52.206;5.114;2023-02-14T00:54:13;103544.09;;;5.29;78.01
64886;BME280;51514;52.206;5.114;2023-02-14T00:56:39;103537.16;;;5.23;78.10
64886;BME280;51514;52.206;5.114;2023-02-14T00:59:04;103535.56;;;5.19;78.34
64886;BME280;51514;52.206;5.114;2023-02-14T01:01:29;103536.53;;;5.17;78.18
64886;BME280;51514;52.206;5.114;2023-02-14T01:03:55;103535.72;;;5.14;78.60
64886;BME280;51514;52.206;5.114;2023-02-14T01:06:20;103534.91;;;5.12;78.53
64886;BME280;51514;52.206;5.114;2023-02-14T01:08:46;103534.13;;;5.09;78.81
64886;BME280;51514;52.206;5.114;2023-02-14T01:11:17;103538.69;;;5.07;78.74
64886;BME280;51514;52.206;5.114;2023-02-14T01:13:43;103532.53;;;5.05;78.71
64886;BME280;51514;52.206;5.114;2023-02-14T01:16:12;103527.34;;;5.00;79.02
64886;BME280;51514;52.206;5.114;2023-02-14T01:18:38;103523.84;;;4.98;78.92
64886;BME280;51514;52.206;5.114;2023-02-14T01:23:35;103521.41;;;4.92;79.11
64886;BME280;51514;52.206;5.114;2023-02-14T01:26:05;103518.84;;;4.89;78.81
64886;BME280;51514;52.206;5.114;2023-02-14T01:28:30;103510.88;;;4.88;79.18
64886;BME280;51514;52.206;5.114;2023-02-14T01:30:56;103515.34;;;4.87;80.09
64886;BME280;51514;52.206;5.114;2023-02-14T01:33:21;103508.16;;;4.89;80.20
64886;BME280;51514;52.206;5.114;2023-02-14T01:35:46;103524.13;;;4.91;80.39
64886;BME280;51514;52.206;5.114;2023-02-14T01:38:12;103515.19;;;4.92;80.43
64886;BME280;51514;52.206;5.114;2023-02-14T01:40:46;103511.59;;;4.93;81.10
64886;BME280;51514;52.206;5.114;2023-02-14T01:43:14;103527.53;;;4.96;81.22
64886;BME280;51514;52.206;5.114;2023-02-14T01:45:40;103529.28;;;4.97;80.80
64886;BME280;51514;52.206;5.114;2023-02-14T01:48:05;103517.72;;;4.96;80.52
64886;BME280;51514;52.206;5.114;2023-02-14T01:50:35;103516.94;;;4.93;80.10
64886;BME280;51514;52.206;5.114;2023-02-14T01:53:01;103517.91;;;4.90;79.92
64886;BME280;51514;52.206;5.114;2023-02-14T01:55:31;103517.09;;;4.88;79.34
64886;BME280;51514;52.206;5.114;2023-02-14T01:57:59;103517.19;;;4.87;79.71
64886;BME280;51514;52.206;5.114;2023-02-14T02:00:26;103513.53;;;4.88;79.66
64886;BME280;51514;52.206;5.114;2023-02-14T02:03:11;103513.53;;;4.88;79.51
64886;BME280;51514;52.206;5.114;2023-02-14T02:05:44;103517.19;;;4.87;80.26
64886;BME280;51514;52.206;5.114;2023-02-14T02:08:11;103511.00;;;4.85;79.66
64886;BME280;51514;52.206;5.114;2023-02-14T02:10:37;103512.84;;;4.83;79.82
64886;BME280;51514;52.206;5.114;2023-02-14T02:13:05;103518.25;;;4.81;79.89
64886;BME280;51514;52.206;5.114;2023-02-14T02:15:41;103518.25;;;4.81;80.06
64886;BME280;51514;52.206;5.114;2023-02-14T02:18:20;103508.53;;;4.78;79.82
64886;BME280;51514;52.206;5.114;2023-02-14T02:32:30;103520.78;;;4.61;79.25
64886;BME280;51514;52.206;5.114;2023-02-14T02:35:11;103519.19;;;4.55;79.31
64886;BME280;51514;52.206;5.114;2023-02-14T02:44:03;103510.75;;;4.43;79.22
64886;BME280;51514;52.206;5.114;2023-02-14T02:46:15;103505.47;;;4.41;79.63
64886;BME280;51514;52.206;5.114;2023-02-14T02:51:38;103512.47;;;4.44;79.51
64886;BME280;51514;52.206;5.114;2023-02-14T02:54:39;103506.16;;;4.46;79.65
64886;BME280;51514;52.206;5.114;2023-02-14T02:57:12;103516.84;;;4.46;80.34
64886;BME280;51514;52.206;5.114;2023-02-14T02:59:41;103509.66;;;4.48;80.40
64886;BME280;51514;52.206;5.114;2023-02-14T03:02:15;103509.59;;;4.50;81.27
64886;BME280;51514;52.206;5.114;2023-02-14T03:04:44;103501.63;;;4.48;80.73
64886;BME280;51514;52.206;5.114;2023-02-14T03:07:37;103507.91;;;4.47;80.53
64886;BME280;51514;52.206;5.114;2023-02-14T03:10:11;103509.75;;;4.45;80.32
64886;BME280;51514;52.206;5.114;2023-02-14T03:19:09;103495.75;;;4.38;79.70
64886;BME280;51514;52.206;5.114;2023-02-14T03:22:07;103496.53;;;4.42;79.89
64886;BME280;51514;52.206;5.114;2023-02-14T03:24:45;103496.34;;;4.47;78.96
64886;BME280;51514;52.206;5.114;2023-02-14T03:27:40;103492.94;;;4.43;79.05
64886;BME280;51514;52.206;5.114;2023-02-14T03:33:24;103493.03;;;4.40;79.70
64886;BME280;51514;52.206;5.114;2023-02-14T03:36:19;103487.78;;;4.37;79.16
64886;BME280;51514;52.206;5.114;2023-02-14T03:39:02;103490.34;;;4.40;79.61
64886;BME280;51514;52.206;5.114;2023-02-14T03:41:35;103482.41;;;4.38;79.49
64886;BME280;51514;52.206;5.114;2023-02-14T03:44:04;103497.59;;;4.36;79.70
64886;BME280;51514;52.206;5.114;2023-02-14T03:46:39;103488.00;;;4.31;79.26
64886;BME280;51514;52.206;5.114;2023-02-14T03:49:11;103498.78;;;4.28;79.55
64886;BME280;51514;52.206;5.114;2023-02-14T03:51:39;103490.88;;;4.25;79.69
64886;BME280;51514;52.206;5.114;2023-02-14T03:54:06;103489.19;;;4.22;79.27
64886;BME280;51514;52.206;5.114;2023-02-14T03:59:05;103481.34;;;4.18;79.89
64886;BME280;51514;52.206;5.114;2023-02-14T04:01:36;103487.63;;;4.17;80.85
64886;BME280;51514;52.206;5.114;2023-02-14T04:04:04;103485.81;;;4.17;80.53
64886;BME280;51514;52.206;5.114;2023-02-14T04:06:30;103484.13;;;4.15;80.60
64886;BME280;51514;52.206;5.114;2023-02-14T04:08:56;103484.22;;;4.12;80.56
64886;BME280;51514;52.206;5.114;2023-02-14T04:11:21;103496.69;;;4.11;80.65
64886;BME280;51514;52.206;5.114;2023-02-14T04:13:46;103492.31;;;4.10;80.26
64886;BME280;51514;52.206;5.114;2023-02-14T04:16:12;103493.19;;;4.11;80.61
64886;BME280;51514;52.206;5.114;2023-02-14T04:18:37;103487.97;;;4.06;80.19
64886;BME280;51514;52.206;5.114;2023-02-14T04:21:21;103491.72;;;4.00;80.51
64886;BME280;51514;52.206;5.114;2023-02-14T04:23:46;103486.50;;;3.97;80.52
64886;BME280;51514;52.206;5.114;2023-02-14T04:26:12;103494.56;;;3.96;80.54
64886;BME280;51514;52.206;5.114;2023-02-14T04:28:37;103483.97;;;3.93;81.14
64886;BME280;51514;52.206;5.114;2023-02-14T04:31:05;103483.97;;;3.93;80.89
64886;BME280;51514;52.206;5.114;2023-02-14T04:33:31;103483.09;;;3.92;81.40
64886;BME280;51514;52.206;5.114;2023-02-14T04:35:57;103478.63;;;3.93;81.65
64886;BME280;51514;52.206;5.114;2023-02-14T04:38:22;103480.47;;;3.91;81.91
64886;BME280;51514;52.206;5.114;2023-02-14T04:40:49;103483.22;;;3.89;81.79
64886;BME280;51514;52.206;5.114;2023-02-14T04:43:14;103483.22;;;3.89;82.07
64886;BME280;51514;52.206;5.114;2023-02-14T04:45:40;103476.06;;;3.90;81.91
64886;BME280;51514;52.206;5.114;2023-02-14T04:48:05;103477.97;;;3.86;81.62
64886;BME280;51514;52.206;5.114;2023-02-14T04:50:31;103483.41;;;3.83;82.02
64886;BME280;51514;52.206;5.114;2023-02-14T04:52:56;103478.94;;;3.84;82.70
64886;BME280;51514;52.206;5.114;2023-02-14T04:55:21;103480.78;;;3.82;83.47
64886;BME280;51514;52.206;5.114;2023-02-14T04:57:47;103482.53;;;3.83;82.63
64886;BME280;51514;52.206;5.114;2023-02-14T05:00:12;103474.56;;;3.81;82.85
64886;BME280;51514;52.206;5.114;2023-02-14T05:02:38;103476.41;;;3.79;82.67
64886;BME280;51514;52.206;5.114;2023-02-14T05:05:04;103477.38;;;3.78;83.48
64886;BME280;51514;52.206;5.114;2023-02-14T05:07:29;103473.75;;;3.79;83.50
64886;BME280;51514;52.206;5.114;2023-02-14T05:09:54;103471.94;;;3.80;83.95
64886;BME280;51514;52.206;5.114;2023-02-14T05:12:20;103470.97;;;3.82;83.73
64886;BME280;51514;52.206;5.114;2023-02-14T05:14:45;103476.28;;;3.84;83.24
64886;BME280;51514;52.206;5.114;2023-02-14T05:17:11;103474.47;;;3.84;83.82
64886;BME280;51514;52.206;5.114;2023-02-14T05:19:36;103474.38;;;3.87;83.71
64886;BME280;51514;52.206;5.114;2023-02-14T05:22:01;103477.75;;;3.92;85.64
64886;BME280;51514;52.206;5.114;2023-02-14T05:24:27;103477.53;;;4.00;86.08
64886;BME280;51514;52.206;5.114;2023-02-14T05:26:52;103471.09;;;4.06;85.57
64886;BME280;51514;52.206;5.114;2023-02-14T05:29:17;103470.13;;;4.08;86.08
64886;BME280;51514;52.206;5.114;2023-02-14T05:31:43;103469.97;;;4.11;85.69
64886;BME280;51514;52.206;5.114;2023-02-14T05:34:08;103475.28;;;4.13;84.74
64886;BME280;51514;52.206;5.114;2023-02-14T05:36:33;103476.97;;;4.15;85.83
64886;BME280;51514;52.206;5.114;2023-02-14T05:38:59;103478.69;;;4.18;86.21
64886;BME280;51514;52.206;5.114;2023-02-14T05:41:24;103472.31;;;4.22;86.36
64886;BME280;51514;52.206;5.114;2023-02-14T05:43:49;103485.66;;;4.22;87.28
64886;BME280;51514;52.206;5.114;2023-02-14T05:46:15;103477.75;;;4.19;87.40
64886;BME280;51514;52.206;5.114;2023-02-14T05:48:40;103476.84;;;4.20;86.93
64886;BME280;51514;52.206;5.114;2023-02-14T05:51:09;103470.63;;;4.19;86.32
64886;BME280;51514;52.206;5.114;2023-02-14T05:53:35;103479.50;;;4.20;84.74
64886;BME280;51514;52.206;5.114;2023-02-14T05:56:01;103461.00;;;4.14;84.72
64886;BME280;51514;52.206;5.114;2023-02-14T05:58:26;103472.66;;;4.11;84.11
64886;BME280;51514;52.206;5.114;2023-02-14T06:00:52;103476.38;;;4.07;83.68
64886;BME280;51514;52.206;5.114;2023-02-14T06:03:17;103474.78;;;4.01;83.61
64886;BME280;51514;52.206;5.114;2023-02-14T06:05:42;103464.28;;;3.97;83.79
64886;BME280;51514;52.206;5.114;2023-02-14T06:08:08;103468.81;;;3.93;83.81
64886;BME280;51514;52.206;5.114;2023-02-14T06:10:33;103465.28;;;3.93;83.79
64886;BME280;51514;52.206;5.114;2023-02-14T06:12:59;103466.19;;;3.92;83.66
64886;BME280;51514;52.206;5.114;2023-02-14T06:15:25;103471.53;;;3.92;83.39
64886;BME280;51514;52.206;5.114;2023-02-14T06:17:54;103476.00;;;3.91;83.35
64886;BME280;51514;52.206;5.114;2023-02-14T06:20:20;103464.47;;;3.91;83.18
64886;BME280;51514;52.206;5.114;2023-02-14T06:22:46;103468.91;;;3.90;83.92
64886;BME280;51514;52.206;5.114;2023-02-14T06:25:12;103478.59;;;3.94;84.75
64886;BME280;51514;52.206;5.114;2023-02-14T06:27:38;103473.16;;;3.97;85.70
64886;BME280;51514;52.206;5.114;2023-02-14T06:30:04;103473.09;;;3.99;85.53
64886;BME280;51514;52.206;5.114;2023-02-14T06:32:30;103474.78;;;4.01;86.41
64886;BME280;51514;52.206;5.114;2023-02-14T06:34:55;103480.00;;;4.04;86.95
64886;BME280;51514;52.206;5.114;2023-02-14T06:37:20;103472.94;;;4.03;86.99
64886;BME280;51514;52.206;5.114;2023-02-14T06:39:46;103480.84;;;4.07;86.82
64886;BME280;51514;52.206;5.114;2023-02-14T06:42:11;103479.97;;;4.06;86.28
64886;BME280;51514;52.206;5.114;2023-02-14T06:44:36;103479.19;;;4.02;85.02
64886;BME280;51514;52.206;5.114;2023-02-14T06:47:02;103483.81;;;3.97;85.37
64886;BME280;51514;52.206;5.114;2023-02-14T06:49:28;103484.84;;;3.93;84.66
64886;BME280;51514;52.206;5.114;2023-02-14T06:51:53;103477.00;;;3.89;85.41
64886;BME280;51514;52.206;5.114;2023-02-14T06:54:19;103476.22;;;3.85;85.41
64886;BME280;51514;52.206;5.114;2023-02-14T06:56:44;103475.34;;;3.85;85.82
64886;BME280;51514;52.206;5.114;2023-02-14T06:59:09;103479.00;;;3.82;86.15
64886;BME280;51514;52.206;5.114;2023-02-14T07:01:35;103471.91;;;3.81;85.65
64886;BME280;51514;52.206;5.114;2023-02-14T07:04:00;103469.22;;;3.81;85.85
64886;BME280;51514;52.206;5.114;2023-02-14T07:06:25;103472.78;;;3.82;85.07
64886;BME280;51514;52.206;5.114;2023-02-14T07:08:51;103470.97;;;3.82;85.16
64886;BME280;51514;52.206;5.114;2023-02-14T07:11:16;103467.41;;;3.83;84.72
64886;BME280;51514;52.206;5.114;2023-02-14T07:13:41;103476.22;;;3.85;86.19
64886;BME280;51514;52.206;5.114;2023-02-14T07:16:08;103471.75;;;3.86;86.04
64886;BME280;51514;52.206;5.114;2023-02-14T07:18:33;103470.78;;;3.88;85.98
64886;BME280;51514;52.206;5.114;2023-02-14T07:20:59;103474.38;;;3.87;86.42
64886;BME280;51514;52.206;5.114;2023-02-14T07:23:24;103467.50;;;3.80;86.55
64886;BME280;51514;52.206;5.114;2023-02-14T07:25:49;103471.94;;;3.80;86.31
64886;BME280;51514;52.206;5.114;2023-02-14T07:28:15;103469.22;;;3.81;86.99
64886;BME280;51514;52.206;5.114;2023-02-14T07:30:40;103470.97;;;3.82;87.08
64886;BME280;51514;52.206;5.114;2023-02-14T07:33:05;103470.88;;;3.85;86.57
64886;BME280;51514;52.206;5.114;2023-02-14T07:35:31;103479.81;;;3.84;86.37
64886;BME280;51514;52.206;5.114;2023-02-14T07:37:56;103486.84;;;3.87;86.50
64886;BME280;51514;52.206;5.114;2023-02-14T07:40:23;103476.94;;;3.90;86.86
64886;BME280;51514;52.206;5.114;2023-02-14T07:42:53;103484.84;;;3.93;86.23
64886;BME280;51514;52.206;5.114;2023-02-14T07:45:19;103485.66;;;3.95;85.88
64886;BME280;51514;52.206;5.114;2023-02-14T07:47:46;103487.47;;;3.95;85.46
64886;BME280;51514;52.206;5.114;2023-02-14T07:50:12;103489.16;;;3.97;85.43
64886;BME280;51514;52.206;5.114;2023-02-14T07:52:37;103491.63;;;4.03;85.69
64886;BME280;51514;52.206;5.114;2023-02-14T07:55:02;103490.59;;;4.08;85.42
64886;BME280;51514;52.206;5.114;2023-02-14T07:57:28;103490.59;;;4.08;85.30
64886;BME280;51514;52.206;5.114;2023-02-14T07:59:53;103491.19;;;4.16;85.76
64886;BME280;51514;52.206;5.114;2023-02-14T08:02:19;103486.50;;;4.22;85.70
64886;BME280;51514;52.206;5.114;2023-02-14T08:04:45;103486.97;;;4.35;86.02
64886;BME280;51514;52.206;5.114;2023-02-14T08:07:10;103482.06;;;4.48;85.88
64886;BME280;51514;52.206;5.114;2023-02-14T08:09:35;103477.97;;;4.62;85.60
64886;BME280;51514;52.206;5.114;2023-02-14T08:12:01;103481.72;;;4.82;85.31
64886;BME280;51514;52.206;5.114;2023-02-14T08:14:44;103479.22;;;5.00;84.80
64886;BME280;51514;52.206;5.114;2023-02-14T08:17:10;103470.66;;;5.14;84.21
64886;BME280;51514;52.206;5.114;2023-02-14T08:19:37;103482.63;;;5.27;84.16
64886;BME280;51514;52.206;5.114;2023-02-14T08:22:03;103481.78;;;5.48;84.02
64886;BME280;51514;52.206;5.114;2023-02-14T08:24:29;103491.84;;;5.64;83.47
64886;BME280;51514;52.206;5.114;2023-02-14T08:26:54;103487.75;;;5.77;83.17
64886;BME280;51514;52.206;5.114;2023-02-14T08:29:20;103483.75;;;5.89;83.01
64886;BME280;51514;52.206;5.114;2023-02-14T08:31:45;103482.34;;;6.00;83.17
64886;BME280;51514;52.206;5.114;2023-02-14T08:34:12;103490.81;;;6.11;82.80
64886;BME280;51514;52.206;5.114;2023-02-14T08:36:37;103486.91;;;6.18;82.83
64886;BME280;51514;52.206;5.114;2023-02-14T08:39:03;103482.78;;;6.32;82.64
64886;BME280;51514;52.206;5.114;2023-02-14T08:41:29;103485.00;;;6.42;82.79
64886;BME280;51514;52.206;5.114;2023-02-14T08:43:55;103484.38;;;6.56;83.09
64886;BME280;51514;52.206;5.114;2023-02-14T08:46:20;103491.03;;;6.68;83.08
64886;BME280;51514;52.206;5.114;2023-02-14T08:48:46;103488.72;;;6.79;82.53
64886;BME280;51514;52.206;5.114;2023-02-14T08:51:13;103485.50;;;6.91;82.88
64886;BME280;51514;52.206;5.114;2023-02-14T08:53:39;103483.25;;;7.01;82.25
64886;BME280;51514;52.206;5.114;2023-02-14T08:56:08;103482.31;;;7.02;82.45
64886;BME280;51514;52.206;5.114;2023-02-14T08:58:34;103481.28;;;7.04;81.83
64886;BME280;51514;52.206;5.114;2023-02-14T09:01:16;103479.31;;;7.08;82.04
64886;BME280;51514;52.206;5.114;2023-02-14T09:03:42;103476.38;;;7.14;82.25
64886;BME280;51514;52.206;5.114;2023-02-14T09:06:11;103471.66;;;7.19;82.40
64886;BME280;51514;52.206;5.114;2023-02-14T09:08:38;103474.81;;;7.27;81.82
64886;BME280;51514;52.206;5.114;2023-02-14T09:11:16;103482.44;;;7.36;81.98
64886;BME280;51514;52.206;5.114;2023-02-14T09:13:43;103474.09;;;7.42;81.57
64886;BME280;51514;52.206;5.114;2023-02-14T09:16:11;103476.41;;;7.50;82.42
64886;BME280;51514;52.206;5.114;2023-02-14T09:18:37;103476.28;;;7.53;81.63
64886;BME280;51514;52.206;5.114;2023-02-14T09:21:06;103472.91;;;7.66;82.73
64886;BME280;51514;52.206;5.114;2023-02-14T09:23:32;103473.00;;;7.82;82.63
64886;BME280;51514;52.206;5.114;2023-02-14T09:26:01;103466.56;;;7.86;81.88
64886;BME280;51514;52.206;5.114;2023-02-14T09:28:27;103473.13;;;7.98;82.51
64886;BME280;51514;52.206;5.114;2023-02-14T09:30:53;103463.50;;;8.11;82.39
64886;BME280;51514;52.206;5.114;2023-02-14T09:33:18;103459.22;;;8.24;82.85
64886;BME280;51514;52.206;5.114;2023-02-14T09:35:43;103460.34;;;8.37;82.33
64886;BME280;51514;52.206;5.114;2023-02-14T09:38:27;103455.28;;;8.49;82.27
64886;BME280;51514;52.206;5.114;2023-02-14T09:40:52;103461.03;;;8.58;82.27
64886;BME280;51514;52.206;5.114;2023-02-14T09:43:33;103456.22;;;8.65;82.16
64886;BME280;51514;52.206;5.114;2023-02-14T09:46:01;103445.81;;;8.74;82.26
64886;BME280;51514;52.206;5.114;2023-02-14T09:48:31;103452.34;;;8.86;82.00
64886;BME280;51514;52.206;5.114;2023-02-14T09:51:01;103457.22;;;8.95;82.41
64886;BME280;51514;52.206;5.114;2023-02-14T09:53:33;103467.03;;;9.12;82.55
64886;BME280;51514;52.206;5.114;2023-02-14T09:56:19;103465.50;;;9.24;81.84
64886;BME280;51514;52.206;5.114;2023-02-14T10:01:39;103458.47;;;9.37;80.72
64886;BME280;51514;52.206;5.114;2023-02-14T10:04:31;103458.44;;;9.52;80.64
64886;BME280;51514;52.206;5.114;2023-02-14T10:07:21;103454.19;;;9.64;79.82
64886;BME280;51514;52.206;5.114;2023-02-14T10:12:38;103456.31;;;9.89;79.05
64886;BME280;51514;52.206;5.114;2023-02-14T10:15:18;103458.38;;;10.00;78.32
64886;BME280;51514;52.206;5.114;2023-02-14T10:18:24;103450.69;;;10.08;78.18
64886;BME280;51514;52.206;5.114;2023-02-14T10:20:53;103450.78;;;10.22;78.18
64886;BME280;51514;52.206;5.114;2023-02-14T10:23:44;103450.31;;;10.30;77.34
64886;BME280;51514;52.206;5.114;2023-02-14T10:26:17;103448.50;;;10.44;77.77
64886;BME280;51514;52.206;5.114;2023-02-14T10:28:48;103442.19;;;10.59;77.08
64886;BME280;51514;52.206;5.114;2023-02-14T10:31:16;103445.34;;;10.66;76.95
64886;BME280;51514;52.206;5.114;2023-02-14T10:33:54;103446.41;;;10.78;75.71
64886;BME280;51514;52.206;5.114;2023-02-14T10:41:50;103438.66;;;11.14;73.96
64886;BME280;51514;52.206;5.114;2023-02-14T10:44:39;103434.50;;;11.23;73.28
64886;BME280;51514;52.206;5.114;2023-02-14T10:49:47;103438.19;;;11.49;73.44
64886;BME280;51514;52.206;5.114;2023-02-14T10:54:56;103435.81;;;11.71;72.54
64886;BME280;51514;52.206;5.114;2023-02-14T10:57:34;103435.97;;;11.82;71.63
64886;BME280;51514;52.206;5.114;2023-02-14T11:00:03;103431.47;;;11.95;72.04
64886;BME280;51514;52.206;5.114;2023-02-14T11:02:33;103431.50;;;12.08;72.27
64886;BME280;51514;52.206;5.114;2023-02-14T11:05:01;103434.84;;;12.12;70.68
64886;BME280;51514;52.206;5.114;2023-02-14T11:07:27;103426.75;;;12.24;71.39
64886;BME280;51514;52.206;5.114;2023-02-14T11:09:55;103425.03;;;12.36;71.41
64886;BME280;51514;52.206;5.114;2023-02-14T11:17:39;103422.56;;;12.46;67.63
64886;BME280;51514;52.206;5.114;2023-02-14T11:22:42;103414.66;;;12.55;68.16
64886;BME280;51514;52.206;5.114;2023-02-14T11:25:26;103412.28;;;12.63;66.61
64886;BME280;51514;52.206;5.114;2023-02-14T11:28:01;103410.34;;;12.65;65.43
64886;BME280;51514;52.206;5.114;2023-02-14T11:30:34;103411.94;;;12.68;64.97
64886;BME280;51514;52.206;5.114;2023-02-14T11:33:01;103405.22;;;12.73;65.77
64886;BME280;51514;52.206;5.114;2023-02-14T11:35:29;103404.34;;;12.86;65.47
64886;BME280;51514;52.206;5.114;2023-02-14T11:38:04;103395.97;;;12.89;65.03
64886;BME280;51514;52.206;5.114;2023-02-14T11:40:34;103400.31;;;12.91;65.14
64886;BME280;51514;52.206;5.114;2023-02-14T11:43:37;103396.31;;;12.97;63.16
64886;BME280;51514;52.206;5.114;2023-02-14T11:46:15;103387.72;;;13.03;64.10
64886;BME280;51514;52.206;5.114;2023-02-14T11:49:00;103388.69;;;13.02;62.89
64886;BME280;51514;52.206;5.114;2023-02-14T11:51:35;103381.34;;;13.04;62.32
64886;BME280;51514;52.206;5.114;2023-02-14T11:54:03;103380.78;;;12.99;64.33
64886;BME280;51514;52.206;5.114;2023-02-14T11:56:49;103377.22;;;12.98;62.36
64886;BME280;51514;52.206;5.114;2023-02-14T11:59:26;103373.44;;;13.01;62.73
64886;BME280;51514;52.206;5.114;2023-02-14T12:01:52;103364.09;;;13.05;64.19
64886;BME280;51514;52.206;5.114;2023-02-14T12:04:29;103361.19;;;13.08;62.01
64886;BME280;51514;52.206;5.114;2023-02-14T12:07:20;103344.56;;;13.12;62.08
64886;BME280;51514;52.206;5.114;2023-02-14T12:09:48;103342.44;;;13.18;63.15
64886;BME280;51514;52.206;5.114;2023-02-14T12:12:28;103343.91;;;13.22;63.58
64886;BME280;51514;52.206;5.114;2023-02-14T12:15:16;103343.28;;;13.18;61.94
64886;BME280;51514;52.206;5.114;2023-02-14T12:17:48;103327.91;;;13.19;63.35
64886;BME280;51514;52.206;5.114;2023-02-14T12:20:41;103324.84;;;13.23;62.55
64886;BME280;51514;52.206;5.114;2023-02-14T12:25:50;103319.84;;;13.30;62.79
64886;BME280;51514;52.206;5.114;2023-02-14T12:28:40;103328.06;;;13.28;63.04
64886;BME280;51514;52.206;5.114;2023-02-14T12:31:10;103320.16;;;13.25;63.30
64886;BME280;51514;52.206;5.114;2023-02-14T12:33:36;103322.66;;;13.28;64.37
64886;BME280;51514;52.206;5.114;2023-02-14T12:36:08;103323.53;;;13.29;62.50
64886;BME280;51514;52.206;5.114;2023-02-14T12:39:02;103310.19;;;13.26;62.90
64886;BME280;51514;52.206;5.114;2023-02-14T12:47:11;103306.56;;;13.14;62.07
64886;BME280;51514;52.206;5.114;2023-02-14T12:49:58;103307.22;;;13.05;62.10
64886;BME280;51514;52.206;5.114;2023-02-14T12:52:49;103307.22;;;13.05;64.01
64886;BME280;51514;52.206;5.114;2023-02-14T12:55:58;103299.00;;;13.06;62.11
64886;BME280;51514;52.206;5.114;2023-02-14T13:09:37;103272.59;;;13.21;62.05
64886;BME280;51514;52.206;5.114;2023-02-14T13:15:39;103267.81;;;13.25;61.94
64886;BME280;51514;52.206;5.114;2023-02-14T13:21:16;103262.25;;;13.15;61.06
64886;BME280;51514;52.206;5.114;2023-02-14T13:23:46;103258.00;;;13.11;62.17
64886;BME280;51514;52.206;5.114;2023-02-14T13:26:16;103258.97;;;13.10;61.74
64886;BME280;51514;52.206;5.114;2023-02-14T13:28:51;103258.88;;;13.11;62.23
64886;BME280;51514;52.206;5.114;2023-02-14T13:31:19;103249.47;;;13.17;63.36
64886;BME280;51514;52.206;5.114;2023-02-14T13:34:02;103246.06;;;13.13;61.89
64886;BME280;51514;52.206;5.114;2023-02-14T13:36:31;103243.28;;;13.15;61.86
64886;BME280;51514;52.206;5.114;2023-02-14T13:38:58;103232.22;;;13.18;62.42
64886;BME280;51514;52.206;5.114;2023-02-14T13:41:26;103228.88;;;13.14;62.00
64886;BME280;51514;52.206;5.114;2023-02-14T13:43:56;103231.28;;;13.06;60.96
64886;BME280;51514;52.206;5.114;2023-02-14T13:49:05;103226.31;;;13.00;61.83
64886;BME280;51514;52.206;5.114;2023-02-14T13:51:53;103223.50;;;13.02;62.10
64886;BME280;51514;52.206;5.114;2023-02-14T13:54:25;103229.88;;;13.01;61.24
64886;BME280;51514;52.206;5.114;2023-02-14T13:56:52;103223.38;;;13.03;61.94
64886;BME280;51514;52.206;5.114;2023-02-14T13:59:32;103228.91;;;13.02;61.50
64886;BME280;51514;52.206;5.114;2023-02-14T14:02:36;103224.56;;;12.99;61.03
64886;BME280;51514;52.206;5.114;2023-02-14T14:10:50;103221.75;;;13.01;61.99
64886;BME280;51514;52.206;5.114;2023-02-14T14:18:48;103212.88;;;12.99;61.89
64886;BME280;51514;52.206;5.114;2023-02-14T14:21:25;103215.59;;;12.99;62.51
64886;BME280;51514;52.206;5.114;2023-02-14T14:26:39;103209.69;;;12.94;61.77
64886;BME280;51514;52.206;5.114;2023-02-14T14:29:29;103203.72;;;12.89;61.07
64886;BME280;51514;52.206;5.114;2023-02-14T14:31:55;103208.91;;;12.92;62.33
64886;BME280;51514;52.206;5.114;2023-02-14T14:34:24;103204.47;;;12.91;61.88
64886;BME280;51514;52.206;5.114;2023-02-14T14:37:00;103207.94;;;12.93;61.85
64886;BME280;51514;52.206;5.114;2023-02-14T14:39:29;103204.47;;;12.91;61.68
64886;BME280;51514;52.206;5.114;2023-02-14T14:41:56;103206.00;;;12.95;61.90
64886;BME280;51514;52.206;5.114;2023-02-14T14:44:29;103205.75;;;12.98;62.48
64886;BME280;51514;52.206;5.114;2023-02-14T14:46:58;103198.38;;;13.00;63.26
64886;BME280;51514;52.206;5.114;2023-02-14T14:49:24;103206.38;;;13.01;62.28
64886;BME280;51514;52.206;5.114;2023-02-14T14:51:50;103210.81;;;13.02;62.70
64886;BME280;51514;52.206;5.114;2023-02-14T14:54:18;103206.25;;;13.03;62.30